Time;durP1;ratioP1;P1;durP2;ratioP2;P2;SDS_P1;SDS_P2;PMS_P1;PMS_P2;Temp;Humidity;BMP_temperature;BMP_pressure;BME280_temperature;BME280_humidity;BME280_pressure;Samples;Min_cycle;Max_cycle;Signal;HPM_P1;HPM_P2
2022/11/25 00:00:45;;;;;;;;;;;13.50;96.60;;;;;;5114560;28;19927;-64
2022/11/25 00:03:11;;;;;;;;;;;13.00;96.50;;;;;;5114262;28;19945;-64
2022/11/25 00:05:36;;;;;;;;;;;13.60;96.60;;;;;;5113149;28;19927;-66
2022/11/25 00:08:02;;;;;;;;;;;13.20;96.50;;;;;;5107626;28;19924;-65
2022/11/25 00:10:28;;;;;;;;;;;13.30;96.50;;;;;;5114349;28;19920;-64
2022/11/25 00:12:53;;;;;;;;;;;13.40;96.50;;;;;;5113837;28;19977;-64
2022/11/25 00:15:19;;;;;;;;;;;13.40;96.50;;;;;;5129889;28;19977;-64
2022/11/25 00:17:45;;;;;;;;;;;13.20;96.40;;;;;;5116416;28;19969;-65
2022/11/25 00:20:10;;;;;;;;;;;13.50;96.50;;;;;;5118166;28;20289;-64
2022/11/25 00:22:36;;;;;;;;;;;13.20;96.40;;;;;;5089535;28;19947;-64
2022/11/25 00:25:02;;;;;;;;;;;13.40;96.40;;;;;;5107259;28;19931;-64
2022/11/25 00:27:27;;;;;;;;;;;13.40;96.40;;;;;;5099632;28;19934;-65
2022/11/25 00:29:53;;;;;;;;;;;13.20;96.30;;;;;;5118702;28;19930;-64
2022/11/25 00:32:19;;;;;;;;;;;13.20;96.40;;;;;;5118250;28;19984;-64
2022/11/25 00:34:44;;;;;;;;;;;13.20;96.40;;;;;;5118632;28;20317;-64
2022/11/25 00:37:10;;;;;;;;;;;13.50;96.40;;;;;;5133916;27;19931;-64
2022/11/25 00:39:36;;;;;;;;;;;13.60;96.40;;;;;;5116965;28;19923;-64
2022/11/25 00:44:45;;;;;;;;;;;13.40;96.40;;;;;;5117161;28;19976;-65
2022/11/25 00:47:12;;;;;;;;;;;13.30;96.30;;;;;;5118131;28;19924;-64
2022/11/25 00:49:38;;;;;;;;;;;13.30;96.30;;;;;;5116894;28;19927;-65
2022/11/25 00:52:04;;;;;;;;;;;13.40;96.40;;;;;;5117617;28;19924;-64
2022/11/25 00:54:30;;;;;;;;;;;13.50;96.40;;;;;;5117401;28;20270;-64
2022/11/25 00:56:56;;;;;;;;;;;13.30;96.30;;;;;;5120185;27;19923;-64
2022/11/25 00:59:21;;;;;;;;;;;13.20;96.30;;;;;;5107675;28;19927;-65
2022/11/25 01:01:47;;;;;;;;;;;;;;;;;;5122149;27;19928;-64
2022/11/25 01:04:13;;;;;;;;;;;13.20;96.20;;;;;;5106310;28;19927;-64
2022/11/25 01:06:39;;;;;;;;;;;;;;;;;;5111737;28;19930;-64
2022/11/25 01:09:05;;;;;;;;;;;13.50;96.30;;;;;;5095111;28;19924;-64
2022/11/25 01:11:31;;;;;;;;;;;13.30;96.20;;;;;;5097844;28;19932;-65
2022/11/25 01:13:57;;;;;;;;;;;13.20;96.20;;;;;;5109066;28;19927;-65
2022/11/25 01:16:23;;;;;;;;;;;13.30;96.20;;;;;;5114915;28;19931;-64
2022/11/25 01:18:51;;;;;;;;;;;13.40;96.10;;;;;;5099490;28;19931;-64
2022/11/25 01:21:17;;;;;;;;;;;;;;;;;;5105128;28;20031;-68
2022/11/25 01:23:43;;;;;;;;;;;13.30;96.20;;;;;;5112414;28;19924;-65
2022/11/25 01:26:09;;;;;;;;;;;13.50;96.30;;;;;;5113141;28;20408;-65
2022/11/25 01:28:35;;;;;;;;;;;13.20;96.20;;;;;;5117012;28;20281;-66
2022/11/25 01:31:06;;;;;;;;;;;13.40;96.20;;;;;;5114544;28;20025;-70
2022/11/25 01:33:32;;;;;;;;;;;13.20;96.20;;;;;;5116322;28;19924;-66
2022/11/25 01:36:02;;;;;;;;;;;13.30;96.20;;;;;;5132554;27;19993;-64
2022/11/25 01:38:28;;;;;;;;;;;13.60;96.30;;;;;;5128286;27;19935;-64
2022/11/25 01:40:53;;;;;;;;;;;13.40;96.20;;;;;;5116433;28;19931;-65
2022/11/25 01:43:19;;;;;;;;;;;13.60;96.30;;;;;;5115195;28;19924;-64
2022/11/25 01:45:45;;;;;;;;;;;13.30;96.20;;;;;;5116625;28;19931;-64
2022/11/25 01:48:12;;;;;;;;;;;13.60;96.30;;;;;;5117033;27;19947;-65
2022/11/25 01:50:38;;;;;;;;;;;13.60;96.30;;;;;;5105849;28;20018;-64
2022/11/25 01:53:04;;;;;;;;;;;13.30;96.20;;;;;;5096333;28;20404;-65
2022/11/25 01:55:29;;;;;;;;;;;13.40;96.20;;;;;;5128596;27;19924;-65
2022/11/25 01:57:57;;;;;;;;;;;13.20;96.20;;;;;;5094439;28;19971;-64
2022/11/25 02:00:22;;;;;;;;;;;13.20;96.20;;;;;;5094824;28;19931;-64
2022/11/25 02:02:48;;;;;;;;;;;13.30;96.20;;;;;;5111722;28;20307;-65
2022/11/25 02:05:15;;;;;;;;;;;13.40;96.20;;;;;;5095293;28;20289;-64
2022/11/25 02:07:42;;;;;;;;;;;13.60;96.30;;;;;;5109378;28;19930;-64
2022/11/25 02:10:10;;;;;;;;;;;13.40;96.30;;;;;;5115013;28;20297;-64
2022/11/25 02:12:36;;;;;;;;;;;13.30;96.20;;;;;;5097760;28;20334;-64
2022/11/25 02:15:01;;;;;;;;;;;13.50;96.30;;;;;;5102771;28;20069;-64
2022/11/25 02:17:27;;;;;;;;;;;13.40;96.30;;;;;;5080823;28;19931;-64
2022/11/25 02:19:59;;;;;;;;;;;13.40;96.30;;;;;;5114765;28;19931;-65
2022/11/25 02:22:26;;;;;;;;;;;13.30;96.20;;;;;;5097571;28;19977;-64
2022/11/25 02:24:53;;;;;;;;;;;13.50;96.30;;;;;;5093255;28;19923;-65
2022/11/25 02:27:19;;;;;;;;;;;;;;;;;;5094442;28;19931;-64
2022/11/25 02:29:45;;;;;;;;;;;13.50;96.30;;;;;;5094002;28;19927;-65
2022/11/25 02:32:11;;;;;;;;;;;13.50;96.20;;;;;;5096118;28;20377;-65
2022/11/25 02:34:44;;;;;;;;;;;13.30;96.20;;;;;;5114221;28;20365;-65
2022/11/25 02:37:10;;;;;;;;;;;13.50;96.30;;;;;;5088313;28;19928;-64
2022/11/25 02:39:36;;;;;;;;;;;13.40;96.20;;;;;;5102658;28;20011;-64
2022/11/25 02:42:01;;;;;;;;;;;13.50;96.20;;;;;;5111671;28;19985;-65
2022/11/25 02:44:27;;;;;;;;;;;13.60;96.30;;;;;;5114889;28;20376;-64
2022/11/25 02:46:53;;;;;;;;;;;13.30;96.20;;;;;;5130848;27;19923;-64
2022/11/25 02:49:18;;;;;;;;;;;13.50;96.30;;;;;;5085390;28;19924;-64
2022/11/25 02:51:44;;;;;;;;;;;13.30;96.20;;;;;;5110341;28;19982;-64
2022/11/25 02:54:10;;;;;;;;;;;13.50;96.30;;;;;;5095000;28;19971;-64
2022/11/25 02:56:36;;;;;;;;;;;13.50;96.20;;;;;;5107358;28;19931;-65
2022/11/25 02:59:02;;;;;;;;;;;;;;;;;;5113462;28;19924;-65
2022/11/25 03:01:29;;;;;;;;;;;13.30;96.20;;;;;;5113429;28;20369;-64
2022/11/25 03:03:55;;;;;;;;;;;13.50;96.30;;;;;;5100960;28;19924;-65
2022/11/25 03:06:21;;;;;;;;;;;13.40;96.20;;;;;;5093576;28;19924;-64
2022/11/25 03:08:46;;;;;;;;;;;13.30;96.20;;;;;;5093154;28;20065;-64
2022/11/25 03:11:12;;;;;;;;;;;13.20;96.20;;;;;;5093468;28;19924;-65
2022/11/25 03:13:38;;;;;;;;;;;13.30;96.30;;;;;;5111711;28;20008;-64
2022/11/25 03:16:03;;;;;;;;;;;13.40;96.30;;;;;;5130145;27;19924;-64
2022/11/25 03:18:29;;;;;;;;;;;13.40;96.30;;;;;;5114524;28;19931;-65
2022/11/25 03:20:55;;;;;;;;;;;13.40;96.30;;;;;;5100878;28;19932;-64
2022/11/25 03:23:20;;;;;;;;;;;13.40;96.30;;;;;;5094245;28;20003;-65
2022/11/25 03:25:46;;;;;;;;;;;13.40;96.30;;;;;;5094285;28;19924;-65
2022/11/25 03:28:12;;;;;;;;;;;13.30;96.20;;;;;;5094323;28;19924;-65
2022/11/25 03:30:37;;;;;;;;;;;13.40;96.30;;;;;;5076948;28;20274;-65
2022/11/25 03:33:03;;;;;;;;;;;13.30;96.30;;;;;;5100892;28;19931;-65
2022/11/25 03:35:29;;;;;;;;;;;13.50;96.40;;;;;;5094157;28;19925;-65
2022/11/25 03:37:54;;;;;;;;;;;13.50;96.40;;;;;;5109619;28;20374;-65
2022/11/25 03:40:20;;;;;;;;;;;13.60;96.20;;;;;;5095060;28;20274;-65
2022/11/25 03:42:46;;;;;;;;;;;13.40;96.30;;;;;;5094064;28;20335;-64
2022/11/25 03:45:12;;;;;;;;;;;13.50;96.40;;;;;;5092848;28;19969;-65
2022/11/25 03:47:38;;;;;;;;;;;13.40;96.40;;;;;;5075595;28;20011;-65
2022/11/25 03:50:04;;;;;;;;;;;13.50;96.40;;;;;;5109847;28;20132;-65
2022/11/25 03:52:29;;;;;;;;;;;13.30;96.30;;;;;;5092958;28;20411;-65
2022/11/25 03:54:55;;;;;;;;;;;13.40;96.40;;;;;;5109265;28;19993;-65
2022/11/25 03:57:21;;;;;;;;;;;13.50;96.40;;;;;;5076297;28;19974;-65
2022/11/25 03:59:47;;;;;;;;;;;;;;;;;;5096776;28;19932;-66
2022/11/25 04:02:13;;;;;;;;;;;13.40;96.40;;;;;;5102790;28;19924;-65
2022/11/25 04:04:38;;;;;;;;;;;13.60;96.50;;;;;;5093617;28;19926;-65
2022/11/25 04:07:04;;;;;;;;;;;13.30;96.40;;;;;;5109274;28;20010;-64
2022/11/25 04:09:30;;;;;;;;;;;13.60;96.60;;;;;;5092738;28;19977;-65
2022/11/25 04:14:39;;;;;;;;;;;13.60;96.60;;;;;;5108219;28;19989;-65
2022/11/25 04:17:05;;;;;;;;;;;13.30;96.50;;;;;;5093587;28;20357;-65
2022/11/25 04:19:31;;;;;;;;;;;13.20;96.60;;;;;;5093906;28;19955;-65
2022/11/25 04:22:01;;;;;;;;;;;;;;;;;;5094502;28;19928;-64
2022/11/25 04:24:27;;;;;;;;;;;13.60;96.60;;;;;;5113566;28;19927;-64
2022/11/25 04:26:53;;;;;;;;;;;13.20;96.60;;;;;;5112657;28;19950;-65
2022/11/25 04:29:18;;;;;;;;;;;13.50;96.70;;;;;;5100062;28;19924;-63
2022/11/25 04:31:44;;;;;;;;;;;13.40;96.70;;;;;;5092220;28;19928;-65
2022/11/25 04:34:09;;;;;;;;;;;13.40;96.70;;;;;;5075397;28;19931;-64
2022/11/25 04:36:35;;;;;;;;;;;13.50;96.70;;;;;;5092832;28;19924;-64
2022/11/25 04:39:01;;;;;;;;;;;13.40;96.70;;;;;;5104578;28;19968;-65
2022/11/25 04:41:26;;;;;;;;;;;13.40;96.70;;;;;;5121871;28;20385;-65
2022/11/25 04:43:52;;;;;;;;;;;13.50;96.80;;;;;;5114050;28;20333;-64
2022/11/25 04:46:18;;;;;;;;;;;13.40;96.80;;;;;;5114282;28;19924;-64
2022/11/25 04:48:44;;;;;;;;;;;13.40;96.80;;;;;;5113813;28;20010;-64
2022/11/25 04:51:10;;;;;;;;;;;13.40;96.80;;;;;;5129552;28;20418;-65
2022/11/25 04:53:35;;;;;;;;;;;13.20;96.70;;;;;;5111773;28;19924;-65
2022/11/25 04:56:01;;;;;;;;;;;13.50;96.80;;;;;;5113438;28;19924;-64
2022/11/25 05:01:11;;;;;;;;;;;13.30;96.80;;;;;;5112398;28;19930;-69
2022/11/25 05:03:36;;;;;;;;;;;13.40;96.80;;;;;;5115678;28;19928;-66
2022/11/25 05:06:06;;;;;;;;;;;13.60;96.90;;;;;;5117490;28;20346;-64
2022/11/25 05:08:31;;;;;;;;;;;13.30;96.80;;;;;;5116249;28;19931;-64
2022/11/25 05:10:57;;;;;;;;;;;13.30;96.80;;;;;;5111282;28;20377;-65
2022/11/25 05:13:23;;;;;;;;;;;13.50;96.80;;;;;;5100229;28;20369;-64
2022/11/25 05:15:49;;;;;;;;;;;13.40;96.90;;;;;;5105911;28;19977;-64
2022/11/25 05:18:14;;;;;;;;;;;13.60;96.90;;;;;;5096706;28;19949;-65
2022/11/25 05:20:40;;;;;;;;;;;13.60;96.90;;;;;;5096739;28;19924;-65
2022/11/25 05:23:05;;;;;;;;;;;13.20;96.80;;;;;;5111784;28;20350;-66
2022/11/25 05:25:31;;;;;;;;;;;13.50;96.90;;;;;;5110224;28;19932;-64
2022/11/25 05:27:57;;;;;;;;;;;13.40;96.90;;;;;;5099787;28;19927;-69
2022/11/25 05:30:22;;;;;;;;;;;13.50;96.90;;;;;;5111594;28;20392;-64
2022/11/25 05:32:48;;;;;;;;;;;13.30;96.90;;;;;;5116532;28;19924;-65
2022/11/25 05:35:14;;;;;;;;;;;13.10;96.90;;;;;;5115392;28;19930;-65
2022/11/25 05:37:39;;;;;;;;;;;13.20;96.90;;;;;;5132747;27;19920;-65
2022/11/25 05:40:05;;;;;;;;;;;13.30;97.00;;;;;;5132419;27;20431;-64
2022/11/25 05:42:31;;;;;;;;;;;13.30;97.00;;;;;;5111717;28;19977;-65
2022/11/25 05:44:57;;;;;;;;;;;13.50;97.00;;;;;;5100815;28;19927;-65
2022/11/25 05:47:22;;;;;;;;;;;13.30;96.90;;;;;;5116277;28;19924;-65
2022/11/25 05:49:48;;;;;;;;;;;13.50;97.00;;;;;;5132458;27;20414;-64
2022/11/25 05:52:14;;;;;;;;;;;13.50;97.00;;;;;;5116495;28;19924;-64
2022/11/25 05:54:39;;;;;;;;;;;13.40;97.00;;;;;;5117071;28;19923;-64
2022/11/25 05:57:05;;;;;;;;;;;13.20;97.00;;;;;;5115814;28;20019;-65
2022/11/25 05:59:31;;;;;;;;;;;13.40;97.00;;;;;;5114874;28;19931;-65
2022/11/25 06:01:56;;;;;;;;;;;13.50;97.10;;;;;;5127454;27;20041;-64
2022/11/25 06:04:22;;;;;;;;;;;13.10;97.00;;;;;;5100575;28;19963;-64
2022/11/25 06:06:48;;;;;;;;;;;13.50;97.10;;;;;;5116346;28;19931;-65
2022/11/25 06:09:14;;;;;;;;;;;13.50;97.10;;;;;;5098108;28;20381;-64
2022/11/25 06:11:40;;;;;;;;;;;13.60;97.10;;;;;;5115922;28;19924;-65
2022/11/25 06:14:06;;;;;;;;;;;13.50;97.10;;;;;;5114070;28;19946;-64
2022/11/25 06:16:32;;;;;;;;;;;13.40;97.10;;;;;;5115814;28;19924;-65
2022/11/25 06:18:58;;;;;;;;;;;;;;;;;;5110722;28;20296;-66
2022/11/25 06:21:24;;;;;;;;;;;13.40;97.00;;;;;;5098352;28;20016;-65
2022/11/25 06:23:49;;;;;;;;;;;13.20;97.00;;;;;;5131538;27;19959;-65
2022/11/25 06:26:18;;;;;;;;;;;13.10;97.00;;;;;;5108086;28;19928;-64
2022/11/25 06:28:44;;;;;;;;;;;13.40;97.00;;;;;;5112691;28;20347;-64
2022/11/25 06:31:12;;;;;;;;;;;13.50;97.10;;;;;;5112381;28;20460;-64
2022/11/25 06:33:39;;;;;;;;;;;13.60;97.20;;;;;;5115359;28;19924;-64
2022/11/25 06:36:06;;;;;;;;;;;13.10;97.00;;;;;;5114569;28;19928;-64
2022/11/25 06:38:34;;;;;;;;;;;13.40;97.10;;;;;;5123237;27;19975;-65
2022/11/25 06:41:04;;;;;;;;;;;13.30;97.10;;;;;;5115646;28;20373;-64
2022/11/25 06:43:31;;;;;;;;;;;13.40;97.10;;;;;;5115275;28;19967;-65
2022/11/25 06:46:03;;;;;;;;;;;13.40;97.10;;;;;;5097411;28;20300;-64
2022/11/25 06:48:30;;;;;;;;;;;13.30;97.10;;;;;;5113755;28;20395;-65
2022/11/25 06:51:00;;;;;;;;;;;13.60;97.10;;;;;;5113991;28;19931;-64
2022/11/25 06:53:26;;;;;;;;;;;13.60;97.20;;;;;;5105057;28;20019;-64
2022/11/25 06:56:09;;;;;;;;;;;13.50;97.10;;;;;;5101972;28;19924;-64
2022/11/25 06:58:37;;;;;;;;;;;13.20;97.10;;;;;;5114630;28;19946;-65
2022/11/25 07:01:04;;;;;;;;;;;13.50;97.20;;;;;;5114060;28;20322;-64
2022/11/25 07:03:32;;;;;;;;;;;13.50;97.20;;;;;;5097231;28;19919;-64
2022/11/25 07:06:00;;;;;;;;;;;13.70;97.20;;;;;;5130950;27;19963;-64
2022/11/25 07:08:26;;;;;;;;;;;13.70;97.20;;;;;;5114773;28;19924;-64
2022/11/25 07:11:01;;;;;;;;;;;13.60;97.20;;;;;;5102225;28;19977;-64
2022/11/25 07:13:28;;;;;;;;;;;13.50;97.10;;;;;;5107051;28;19935;-64
2022/11/25 07:15:59;;;;;;;;;;;13.60;97.20;;;;;;5113753;28;20453;-64
2022/11/25 07:18:28;;;;;;;;;;;13.50;97.20;;;;;;5114661;28;20293;-65
2022/11/25 07:20:54;;;;;;;;;;;13.70;97.20;;;;;;5113574;28;19945;-64
2022/11/25 07:23:20;;;;;;;;;;;13.50;97.20;;;;;;5130751;27;20010;-64
2022/11/25 07:25:47;;;;;;;;;;;13.60;97.20;;;;;;5113231;28;19970;-64
2022/11/25 07:28:15;;;;;;;;;;;13.40;97.20;;;;;;5109183;28;20271;-65
2022/11/25 07:30:43;;;;;;;;;;;13.20;97.10;;;;;;5130369;27;19923;-64
2022/11/25 07:33:09;;;;;;;;;;;13.50;97.20;;;;;;5112274;28;20065;-65
2022/11/25 07:35:43;;;;;;;;;;;13.70;97.30;;;;;;5114316;28;20020;-66
2022/11/25 07:38:10;;;;;;;;;;;13.60;97.20;;;;;;5113372;28;20040;-64
2022/11/25 07:40:38;;;;;;;;;;;13.80;97.30;;;;;;5113416;28;19928;-64
2022/11/25 07:43:05;;;;;;;;;;;13.30;97.20;;;;;;5115175;28;20273;-64
2022/11/25 07:45:31;;;;;;;;;;;13.70;97.30;;;;;;5096450;28;19930;-64
2022/11/25 07:48:00;;;;;;;;;;;13.80;97.30;;;;;;5111015;28;19923;-65
2022/11/25 07:50:28;;;;;;;;;;;13.60;97.30;;;;;;5112886;28;19934;-65
2022/11/25 07:52:55;;;;;;;;;;;13.60;97.30;;;;;;5114438;28;20289;-65
2022/11/25 07:55:20;;;;;;;;;;;13.50;97.30;;;;;;5114173;28;19930;-65
2022/11/25 07:57:46;;;;;;;;;;;13.30;97.30;;;;;;5129850;28;19932;-66
2022/11/25 08:00:14;;;;;;;;;;;13.80;97.50;;;;;;5113378;28;20299;-66
2022/11/25 08:02:40;;;;;;;;;;;13.60;97.90;;;;;;5113220;28;19924;-66
2022/11/25 08:05:06;;;;;;;;;;;13.60;97.90;;;;;;5106079;28;19936;-71
2022/11/25 08:07:31;;;;;;;;;;;14.00;98.10;;;;;;5084532;28;19923;-65
2022/11/25 08:09:57;;;;;;;;;;;13.70;98.00;;;;;;5111702;28;20001;-65
2022/11/25 08:12:22;;;;;;;;;;;14.00;98.10;;;;;;5114237;28;19924;-66
2022/11/25 08:14:48;;;;;;;;;;;13.90;98.10;;;;;;5111082;28;20377;-66
2022/11/25 08:17:14;;;;;;;;;;;14.00;98.00;;;;;;5104450;28;19924;-65
2022/11/25 08:19:40;;;;;;;;;;;14.10;98.00;;;;;;5113449;28;20004;-67
2022/11/25 08:22:05;;;;;;;;;;;14.00;98.00;;;;;;5111724;28;19978;-65
2022/11/25 08:24:31;;;;;;;;;;;14.10;98.10;;;;;;5099894;28;19931;-66
2022/11/25 08:27:00;;;;;;;;;;;;;;;;;;5101464;28;19977;-74
2022/11/25 08:29:26;;;;;;;;;;;;;;;;;;5106024;28;20300;-68
2022/11/25 08:31:51;;;;;;;;;;;14.40;98.20;;;;;;5112771;28;20238;-65
2022/11/25 08:34:21;;;;;;;;;;;14.20;98.10;;;;;;5111076;28;20373;-70
2022/11/25 08:36:47;;;;;;;;;;;14.00;97.90;;;;;;5110163;28;19924;-67
2022/11/25 08:39:13;;;;;;;;;;;14.40;97.90;;;;;;5109700;28;20019;-70
2022/11/25 08:41:38;;;;;;;;;;;14.10;97.80;;;;;;5111775;28;20057;-64
2022/11/25 08:44:05;;;;;;;;;;;14.30;97.80;;;;;;5111997;28;20843;-65
2022/11/25 08:46:33;;;;;;;;;;;14.10;97.80;;;;;;5063067;28;20289;-65
2022/11/25 08:48:58;;;;;;;;;;;14.40;97.90;;;;;;5115700;28;19971;-64
2022/11/25 08:51:24;;;;;;;;;;;;;;;;;;5117470;28;19949;-68
2022/11/25 08:53:50;;;;;;;;;;;14.10;97.80;;;;;;5100569;28;19977;-65
2022/11/25 08:56:16;;;;;;;;;;;14.20;97.80;;;;;;5101093;28;19932;-65
2022/11/25 08:58:41;;;;;;;;;;;14.30;97.70;;;;;;5096595;28;20305;-65
2022/11/25 09:01:07;;;;;;;;;;;14.30;97.80;;;;;;5095947;28;19924;-65
2022/11/25 09:03:34;;;;;;;;;;;14.30;97.90;;;;;;5125256;27;19924;-64
2022/11/25 09:05:59;;;;;;;;;;;14.00;97.80;;;;;;5116826;28;20292;-64
2022/11/25 09:08:25;;;;;;;;;;;13.90;97.70;;;;;;5111901;28;19920;-65
2022/11/25 09:10:51;;;;;;;;;;;14.00;97.70;;;;;;5096542;28;19931;-66
2022/11/25 09:13:16;;;;;;;;;;;14.20;97.70;;;;;;5096917;28;19928;-66
2022/11/25 09:15:42;;;;;;;;;;;14.00;97.70;;;;;;5113183;28;20293;-65
2022/11/25 09:18:08;;;;;;;;;;;14.00;97.60;;;;;;5112454;28;19928;-65
2022/11/25 09:20:34;;;;;;;;;;;13.90;97.60;;;;;;5078460;28;19946;-64
2022/11/25 09:23:00;;;;;;;;;;;14.40;97.80;;;;;;5078539;28;19924;-65
2022/11/25 09:25:26;;;;;;;;;;;14.20;97.70;;;;;;5096064;28;19924;-65
2022/11/25 09:27:52;;;;;;;;;;;14.40;97.80;;;;;;5115587;28;19924;-65
2022/11/25 09:30:17;;;;;;;;;;;14.10;97.60;;;;;;5104191;28;19931;-65
2022/11/25 09:32:43;;;;;;;;;;;14.00;97.70;;;;;;5078304;28;19934;-64
2022/11/25 09:35:09;;;;;;;;;;;14.40;97.70;;;;;;5105536;28;19930;-65
2022/11/25 09:37:35;;;;;;;;;;;;;;;;;;5115352;28;19931;-68
2022/11/25 09:40:00;;;;;;;;;;;14.20;97.60;;;;;;5106105;28;20426;-71
2022/11/25 09:48:23;;;;;;;;;;;14.20;97.70;;;;;;5112075;28;19924;-64
2022/11/25 09:51:00;;;;;;;;;;;14.20;97.70;;;;;;5112013;28;19931;-64
2022/11/25 09:53:43;;;;;;;;;;;14.40;97.70;;;;;;5115063;28;19934;-64
2022/11/25 09:56:10;;;;;;;;;;;14.20;97.70;;;;;;5094627;28;20436;-64
2022/11/25 09:58:37;;;;;;;;;;;13.90;97.60;;;;;;5094565;28;19924;-65
2022/11/25 10:01:04;;;;;;;;;;;14.30;97.70;;;;;;5094740;28;19924;-64
2022/11/25 10:03:41;;;;;;;;;;;14.50;97.70;;;;;;5109058;28;19931;-64
2022/11/25 10:06:17;;;;;;;;;;;14.30;97.70;;;;;;5115484;28;20329;-64
2022/11/25 10:08:44;;;;;;;;;;;14.40;97.80;;;;;;5113286;28;20385;-64
2022/11/25 10:11:42;;;;;;;;;;;14.60;97.80;;;;;;5113972;28;19924;-66
2022/11/25 10:14:26;;;;;;;;;;;14.30;97.90;;;;;;5033371;28;19926;-65
2022/11/25 10:16:52;;;;;;;;;;;14.60;98.00;;;;;;5033164;28;19933;-64
2022/11/25 10:19:17;;;;;;;;;;;14.60;98.10;;;;;;5016358;28;20314;-64
2022/11/25 10:21:45;;;;;;;;;;;14.50;98.00;;;;;;5015741;28;19972;-64
2022/11/25 10:24:14;;;;;;;;;;;14.70;98.10;;;;;;5015170;28;19925;-64
2022/11/25 10:26:41;;;;;;;;;;;14.50;98.10;;;;;;5033032;28;20023;-64
2022/11/25 10:29:13;;;;;;;;;;;14.70;98.10;;;;;;5007269;28;19925;-64
2022/11/25 10:31:40;;;;;;;;;;;14.80;98.20;;;;;;4996687;28;19932;-65
2022/11/25 10:34:17;;;;;;;;;;;14.60;98.10;;;;;;4989067;28;20519;-64
2022/11/25 10:36:43;;;;;;;;;;;14.90;98.20;;;;;;5015374;28;19933;-65
2022/11/25 10:39:09;;;;;;;;;;;15.00;98.30;;;;;;4999501;28;20367;-65
2022/11/25 10:41:35;;;;;;;;;;;;;;;;;;5008099;28;20410;-65
2022/11/25 10:44:00;;;;;;;;;;;15.10;98.30;;;;;;5003090;28;19925;-64
2022/11/25 10:46:29;;;;;;;;;;;14.80;98.20;;;;;;4980300;28;19930;-64
2022/11/25 10:49:12;;;;;;;;;;;15.20;98.30;;;;;;5024751;28;20434;-64
2022/11/25 10:51:48;;;;;;;;;;;15.10;98.30;;;;;;5093363;28;19986;-65
2022/11/25 10:54:15;;;;;;;;;;;15.10;98.20;;;;;;5108420;28;20289;-64
2022/11/25 10:57:02;;;;;;;;;;;15.10;98.30;;;;;;5113834;28;19928;-65
2022/11/25 10:59:33;;;;;;;;;;;15.30;98.30;;;;;;5086099;28;20290;-64
2022/11/25 11:02:05;;;;;;;;;;;15.30;98.20;;;;;;5107088;27;20285;-64
2022/11/25 11:04:31;;;;;;;;;;;15.30;98.20;;;;;;5130034;27;20065;-65
2022/11/25 11:06:57;;;;;;;;;;;15.00;98.10;;;;;;5106811;28;20289;-64
2022/11/25 11:09:30;;;;;;;;;;;15.60;98.20;;;;;;5079309;28;20274;-64
2022/11/25 11:11:56;;;;;;;;;;;;;;;;;;5096883;28;19943;-66
2022/11/25 11:14:22;;;;;;;;;;;15.50;98.10;;;;;;5095264;28;19968;-64
2022/11/25 11:16:51;;;;;;;;;;;15.30;98.10;;;;;;5093228;28;20409;-65
2022/11/25 11:19:21;;;;;;;;;;;15.70;98.20;;;;;;5093786;28;19924;-65
2022/11/25 11:21:47;;;;;;;;;;;15.60;98.10;;;;;;5076673;28;20419;-64
2022/11/25 11:24:26;;;;;;;;;;;15.60;98.10;;;;;;5100038;28;19923;-65
2022/11/25 11:27:15;;;;;;;;;;;15.50;98.00;;;;;;5113720;28;20407;-65
2022/11/25 11:29:40;;;;;;;;;;;15.80;98.00;;;;;;5088957;28;19924;-64
2022/11/25 11:32:06;;;;;;;;;;;16.00;98.00;;;;;;5094586;28;19935;-65
2022/11/25 11:34:36;;;;;;;;;;;15.60;97.90;;;;;;5111033;28;19923;-64
2022/11/25 11:37:01;;;;;;;;;;;15.90;98.00;;;;;;5113463;28;19924;-66
2022/11/25 11:39:43;;;;;;;;;;;16.00;97.90;;;;;;5125549;27;19924;-65
2022/11/25 11:42:21;;;;;;;;;;;15.70;97.80;;;;;;5093092;28;19947;-65
2022/11/25 11:44:53;;;;;;;;;;;15.90;97.80;;;;;;5114981;27;19928;-65
2022/11/25 11:47:22;;;;;;;;;;;16.00;97.80;;;;;;5112922;28;19930;-65
2022/11/25 11:50:00;;;;;;;;;;;15.90;97.80;;;;;;5111685;28;19978;-65
2022/11/25 11:52:45;;;;;;;;;;;15.70;97.80;;;;;;5095139;28;20292;-65
2022/11/25 11:55:23;;;;;;;;;;;15.80;97.80;;;;;;5128474;28;20412;-65
2022/11/25 11:57:49;;;;;;;;;;;15.80;97.80;;;;;;5095393;28;19930;-64
2022/11/25 12:00:15;;;;;;;;;;;15.80;97.70;;;;;;5113550;28;19924;-65
2022/11/25 12:02:47;;;;;;;;;;;15.70;97.70;;;;;;5091348;28;19932;-67
2022/11/25 12:05:20;;;;;;;;;;;15.90;97.70;;;;;;5110841;28;19923;-65
2022/11/25 12:07:49;;;;;;;;;;;15.90;97.60;;;;;;5078114;28;20010;-65
2022/11/25 12:10:31;;;;;;;;;;;15.70;97.50;;;;;;5075662;28;19985;-65
2022/11/25 12:13:16;;;;;;;;;;;16.00;97.60;;;;;;5105730;28;20262;-65
2022/11/25 12:15:50;;;;;;;;;;;15.90;97.50;;;;;;5110654;28;19924;-65
2022/11/25 12:18:19;;;;;;;;;;;15.80;97.40;;;;;;5103715;28;19948;-65
2022/11/25 12:21:04;;;;;;;;;;;15.70;97.40;;;;;;5111100;28;19931;-73
2022/11/25 12:23:32;;;;;;;;;;;15.70;97.40;;;;;;5079759;28;20392;-71
2022/11/25 12:26:00;;;;;;;;;;;15.80;97.40;;;;;;5104050;28;19920;-65
2022/11/25 12:28:31;;;;;;;;;;;15.80;97.40;;;;;;5096242;28;20021;-66
2022/11/25 12:31:00;;;;;;;;;;;15.80;97.50;;;;;;5096637;28;20456;-64
2022/11/25 12:33:28;;;;;;;;;;;15.50;97.40;;;;;;5103153;28;19928;-64
2022/11/25 12:36:04;;;;;;;;;;;15.50;97.40;;;;;;5111616;28;20270;-66
2022/11/25 12:38:56;;;;;;;;;;;15.60;97.40;;;;;;5101748;28;19923;-65
2022/11/25 12:41:24;;;;;;;;;;;15.70;97.40;;;;;;5097356;28;19931;-65
2022/11/25 12:43:51;;;;;;;;;;;15.70;97.50;;;;;;5111760;28;19939;-65
2022/11/25 12:46:17;;;;;;;;;;;;;;;;;;5080678;28;19935;-66
2022/11/25 12:48:42;;;;;;;;;;;15.70;97.40;;;;;;5096616;28;19928;-69
2022/11/25 12:51:14;;;;;;;;;;;15.70;97.40;;;;;;5095955;28;20407;-65
2022/11/25 12:53:49;;;;;;;;;;;15.80;97.50;;;;;;5116440;28;19931;-67
2022/11/25 12:56:17;;;;;;;;;;;15.70;97.50;;;;;;5116414;28;20277;-64
2022/11/25 12:58:51;;;;;;;;;;;15.80;97.60;;;;;;5111672;28;20014;-66
2022/11/25 13:01:23;;;;;;;;;;;15.70;97.60;;;;;;5096389;28;19932;-65
2022/11/25 13:04:07;;;;;;;;;;;15.60;97.50;;;;;;5112915;28;19931;-67
2022/11/25 13:06:37;;;;;;;;;;;15.70;97.50;;;;;;5115811;28;19924;-65
2022/11/25 13:09:03;;;;;;;;;;;;;;;;;;5133161;27;19985;-65
2022/11/25 13:11:48;;;;;;;;;;;15.50;97.50;;;;;;5115845;28;19927;-65
2022/11/25 13:14:14;;;;;;;;;;;;;;;;;;5113761;28;19928;-67
2022/11/25 13:16:40;;;;;;;;;;;15.40;97.50;;;;;;5115788;28;20324;-65
2022/11/25 13:19:10;;;;;;;;;;;15.50;97.60;;;;;;5115725;28;19928;-65
2022/11/25 13:21:36;;;;;;;;;;;;;;;;;;5115209;28;19928;-65
2022/11/25 13:24:02;;;;;;;;;;;15.40;97.60;;;;;;5116912;28;19924;-66
2022/11/25 13:26:28;;;;;;;;;;;15.40;97.60;;;;;;5103784;28;20381;-66
2022/11/25 13:28:54;;;;;;;;;;;15.70;97.70;;;;;;5133004;27;19923;-65
2022/11/25 13:31:20;;;;;;;;;;;15.60;97.70;;;;;;5115575;28;19924;-65
2022/11/25 13:33:46;;;;;;;;;;;15.40;97.70;;;;;;5115462;28;19955;-64
2022/11/25 13:36:21;;;;;;;;;;;15.70;97.70;;;;;;5111421;28;19924;-68
2022/11/25 13:38:47;;;;;;;;;;;15.10;97.60;;;;;;5111218;28;20450;-64
2022/11/25 13:41:22;;;;;;;;;;;15.40;97.70;;;;;;5096099;28;19924;-65
2022/11/25 13:44:04;;;;;;;;;;;15.50;97.70;;;;;;5102407;28;20368;-65
2022/11/25 13:46:40;;;;;;;;;;;15.30;97.70;;;;;;5080407;28;19927;-66
2022/11/25 13:49:06;;;;;;;;;;;15.30;97.70;;;;;;5110607;28;19928;-67
2022/11/25 13:51:32;;;;;;;;;;;15.30;97.70;;;;;;5111766;28;19976;-68
2022/11/25 13:54:03;;;;;;;;;;;15.20;97.70;;;;;;5098121;28;19992;-65
2022/11/25 13:56:32;;;;;;;;;;;15.40;97.70;;;;;;5110585;28;19994;-65
2022/11/25 13:59:07;;;;;;;;;;;15.20;97.70;;;;;;5094371;28;19973;-64
2022/11/25 14:01:33;;;;;;;;;;;15.20;97.70;;;;;;5104997;28;19977;-65
2022/11/25 14:03:59;;;;;;;;;;;15.30;97.80;;;;;;5111787;28;20311;-64
2022/11/25 14:06:52;;;;;;;;;;;15.40;97.80;;;;;;5111873;28;20403;-64
2022/11/25 14:09:24;;;;;;;;;;;15.40;97.80;;;;;;5128740;27;19963;-64
2022/11/25 14:12:05;;;;;;;;;;;15.40;97.90;;;;;;5097908;28;19924;-65
2022/11/25 14:14:49;;;;;;;;;;;15.10;97.80;;;;;;5114736;28;19959;-64
2022/11/25 14:17:14;;;;;;;;;;;15.20;97.80;;;;;;5130001;27;19924;-66
2022/11/25 14:19:49;;;;;;;;;;;15.00;97.80;;;;;;5114569;28;19930;-69
2022/11/25 14:22:25;;;;;;;;;;;15.40;98.00;;;;;;5114754;28;20325;-66
2022/11/25 14:24:54;;;;;;;;;;;15.40;98.00;;;;;;5114852;28;19923;-65
2022/11/25 14:27:21;;;;;;;;;;;15.00;97.90;;;;;;5099004;28;19924;-65
2022/11/25 14:29:51;;;;;;;;;;;15.00;97.90;;;;;;5097386;28;19928;-64
2022/11/25 14:32:21;;;;;;;;;;;15.20;98.00;;;;;;5125248;27;19974;-72
2022/11/25 14:34:48;;;;;;;;;;;15.10;98.00;;;;;;5097406;28;19946;-65
2022/11/25 14:37:27;;;;;;;;;;;15.00;97.90;;;;;;5112496;28;20294;-64
2022/11/25 14:39:54;;;;;;;;;;;15.10;98.00;;;;;;5097160;28;19963;-67
2022/11/25 14:42:20;;;;;;;;;;;15.10;97.90;;;;;;5107842;28;19928;-66